Time;durP1;ratioP1;P1;durP2;ratioP2;P2;SDS_P1;SDS_P2;PMS_P1;PMS_P2;Temp;Humidity;BMP_temperature;BMP_pressure;BME280_temperature;BME280_humidity;BME280_pressure;Samples;Min_cycle;Max_cycle;Signal;HPM_P1;HPM_P2
2022/09/06 00:00:59;;;;;;;3.23;1.20;;;;;;;11.72;52.41;100958.63;4244611;28;21435;-69
2022/09/06 00:03:27;;;;;;;5.40;1.47;;;;;;;11.73;51.93;100941.69;4244608;28;20228;-69
2022/09/06 00:05:54;;;;;;;6.00;1.17;;;;;;;11.73;52.21;100944.34;4239854;28;20230;-70
2022/09/06 00:08:20;;;;;;;5.27;1.47;;;;;;;11.66;52.81;100937.88;4239868;28;20280;-70
2022/09/06 00:10:47;;;;;;;4.03;1.20;;;;;;;11.68;52.64;100941.22;4251293;28;21449;-70
2022/09/06 00:13:13;;;;;;;4.37;1.50;;;;;;;11.69;52.74;100937.59;4265468;28;20238;-70
2022/09/06 00:15:40;;;;;;;7.80;1.30;;;;;;;11.59;52.32;100942.94;4253297;28;21101;-70
2022/09/06 00:18:07;;;;;;;5.37;1.13;;;;;;;11.60;52.59;100954.44;4248951;28;20387;-70
2022/09/06 00:20:34;;;;;;;6.87;1.27;;;;;;;11.58;52.57;100948.38;4252791;28;20237;-70
2022/09/06 00:23:03;;;;;;;7.43;1.30;;;;;;;11.60;53.08;100954.44;4250938;28;22326;-71
2022/09/06 00:25:30;;;;;;;4.50;1.20;;;;;;;11.56;52.93;100953.00;4243752;28;25409;-69
2022/09/06 00:28:00;;;;;;;7.73;1.30;;;;;;;11.55;52.65;100946.00;4246116;28;20230;-71
2022/09/06 00:30:28;;;;;;;7.33;1.37;;;;;;;11.53;53.20;100953.28;4243735;28;20234;-68
2022/09/06 00:32:55;;;;;;;3.37;1.27;;;;;;;11.45;53.49;100945.13;4244746;28;20235;-68
2022/09/06 00:35:25;;;;;;;3.20;1.27;;;;;;;11.41;53.88;100949.91;4239645;28;20236;-69
2022/09/06 00:37:57;;;;;;;2.17;1.40;;;;;;;11.44;53.57;100954.13;4249574;28;20599;-69
2022/09/06 00:40:24;;;;;;;2.27;1.03;;;;;;;11.39;53.63;100955.38;4237414;28;20359;-69
2022/09/06 00:42:51;;;;;;;7.53;1.50;;;;;;;11.31;54.48;100949.91;4249496;28;20238;-69
2022/09/06 00:45:17;;;;;;;3.53;1.00;;;;;;;11.31;54.70;100949.91;4251313;28;20253;-71
2022/09/06 00:47:44;;;;;;;4.07;1.30;;;;;;;11.28;54.59;100946.66;4248323;28;20229;-70
2022/09/06 00:50:12;;;;;;;5.50;1.20;;;;;;;11.30;54.18;100942.03;4233499;28;21769;-68
2022/09/06 00:52:40;;;;;;;5.80;1.20;;;;;;;11.30;54.64;100942.88;4227838;28;20283;-70
2022/09/06 00:55:07;;;;;;;4.57;1.47;;;;;;;11.28;54.50;100947.50;4243796;28;22078;-68
2022/09/06 00:57:34;;;;;;;3.70;1.20;;;;;;;11.28;54.06;100950.16;4239853;28;20257;-70
2022/09/06 01:00:04;;;;;;;3.23;1.50;;;;;;;11.31;54.71;100957.06;4247439;28;21981;-69
2022/09/06 01:02:31;;;;;;;2.70;1.03;;;;;;;11.31;54.58;100949.91;4258128;28;20226;-66
2022/09/06 01:04:58;;;;;;;5.43;1.50;;;;;;;11.32;54.79;100940.91;4245134;28;21785;-69
2022/09/06 01:08:15;;;;;;;4.47;1.20;;;;;;;11.34;53.55;100938.13;4248910;28;20235;-70
2022/09/06 01:10:56;;;;;;;7.00;1.33;;;;;;;11.37;53.27;100936.00;4210071;28;20240;-70
2022/09/06 01:13:52;;;;;;;5.17;1.10;;;;;;;11.33;53.47;100939.09;4189702;28;20243;-69
2022/09/06 01:16:31;;;;;;;2.40;1.10;;;;;;;11.24;53.92;100934.56;4227236;28;20706;-70
2022/09/06 01:19:39;;;;;;;2.07;1.30;;;;;;;11.17;53.83;100936.97;4225593;28;20245;-68
2022/09/06 01:22:13;;;;;;;2.70;0.80;;;;;;;11.20;54.06;100934.03;4230367;28;20236;-69
2022/09/06 01:24:58;;;;;;;6.33;1.27;;;;;;;11.24;53.29;100938.09;4237838;28;20599;-69
2022/09/06 01:27:30;;;;;;;3.17;1.07;;;;;;;11.24;53.60;100937.25;4251389;28;21647;-71
2022/09/06 01:30:07;;;;;;;4.83;1.03;;;;;;;11.22;53.84;100933.91;4257471;28;21882;-69
2022/09/06 01:32:50;;;;;;;4.30;1.00;;;;;;;11.22;53.64;100940.06;4252395;28;20895;-70
2022/09/06 01:35:38;;;;;;;4.03;1.13;;;;;;;11.22;53.75;100936.56;4236032;28;20241;-70
2022/09/06 01:38:05;;;;;;;4.00;1.10;;;;;;;11.24;53.93;100938.09;4242043;28;21687;-70
2022/09/06 01:40:35;;;;;;;2.93;0.97;;;;;;;11.15;53.64;100941.59;4245139;28;20280;-70
2022/09/06 01:43:09;;;;;;;2.47;0.97;;;;;;;11.17;53.62;100942.31;4226938;28;20458;-70
2022/09/06 01:45:39;;;;;;;3.17;1.00;;;;;;;11.28;53.39;100950.16;4262321;28;21409;-68
2022/09/06 01:48:36;;;;;;;2.43;0.90;;;;;;;11.16;53.68;100925.44;4253421;28;20308;-68
2022/09/06 01:51:53;;;;;;;2.53;0.93;;;;;;;11.18;53.56;100944.81;4251525;28;20237;-70
2022/09/06 01:54:35;;;;;;;5.63;1.30;;;;;;;11.23;53.65;100947.06;4196058;28;22893;-70
2022/09/06 01:57:23;;;;;;;4.13;1.07;;;;;;;11.15;53.53;100938.94;4244738;28;20339;-69
2022/09/06 02:00:11;;;;;;;3.60;1.20;;;;;;;11.19;53.52;100933.19;4243819;28;21784;-69
2022/09/06 02:02:46;;;;;;;4.10;0.90;;;;;;;11.21;52.88;100938.34;4251563;28;20222;-69
2022/09/06 02:05:19;;;;;;;2.60;1.00;;;;;;;11.18;53.61;100935.97;4247290;28;20230;-70
2022/09/06 02:07:47;;;;;;;4.87;0.97;;;;;;;11.18;53.91;100936.81;4248485;28;20236;-69
2022/09/06 02:10:20;;;;;;;3.83;1.20;;;;;;;11.17;54.35;100934.31;4233464;28;20225;-70
2022/09/06 02:12:51;;;;;;;3.27;1.17;;;;;;;11.14;54.25;100931.91;4243411;28;20226;-69
2022/09/06 02:15:27;;;;;;;3.13;1.10;;;;;;;11.16;54.27;100932.59;4235180;28;20301;-71
2022/09/06 02:18:01;;;;;;;3.53;1.17;;;;;;;11.19;53.71;100941.19;4249787;28;20675;-68
2022/09/06 02:20:30;;;;;;;2.80;1.40;;;;;;;11.21;54.03;100933.03;4243702;28;20295;-69
2022/09/06 02:23:00;;;;;;;5.07;1.30;;;;;;;11.12;54.64;100937.38;4239402;28;20235;-70
2022/09/06 02:25:33;;;;;;;3.30;1.37;;;;;;;11.11;54.42;100942.84;4242584;28;20283;-69
2022/09/06 02:27:59;;;;;;;1.73;1.00;;;;;;;11.11;54.66;100932.19;4235972;28;20252;-69
2022/09/06 02:30:26;;;;;;;3.47;1.23;;;;;;;11.05;54.82;100938.03;4232108;28;21835;-68
2022/09/06 02:33:01;;;;;;;2.57;1.20;;;;;;;10.94;55.32;100942.50;4250538;28;22990;-69
2022/09/06 02:35:28;;;;;;;6.73;1.30;;;;;;;10.88;55.02;100940.38;4246004;28;21642;-71
2022/09/06 02:37:55;;;;;;;3.67;1.30;;;;;;;10.86;55.34;100944.13;4253530;28;21053;-69
2022/09/06 02:40:23;;;;;;;2.60;1.30;;;;;;;10.78;56.09;100940.34;4255706;28;20276;-69
2022/09/06 02:42:49;;;;;;;4.90;1.10;;;;;;;10.70;56.23;100945.50;4271008;28;20248;-69
2022/09/06 02:45:16;;;;;;;5.40;1.30;;;;;;;10.68;56.33;100944.78;4253646;28;20583;-69
2022/09/06 02:47:42;;;;;;;4.90;1.10;;;;;;;10.73;56.74;100939.91;4252724;28;20645;-69
2022/09/06 02:50:09;;;;;;;3.60;1.10;;;;;;;10.73;56.99;100941.72;4256298;28;20284;-68
2022/09/06 02:52:35;;;;;;;3.50;1.23;;;;;;;10.82;56.11;100940.91;4238794;28;21747;-70
2022/09/06 02:55:03;;;;;;;6.03;1.53;;;;;;;10.82;56.10;100938.25;4251543;28;22619;-69
2022/09/06 02:57:30;;;;;;;4.70;1.33;;;;;;;10.74;56.92;100940.72;4242443;28;20229;-68
2022/09/06 02:59:57;;;;;;;4.40;1.30;;;;;;;10.69;56.79;100940.28;4253064;28;20269;-70
2022/09/06 03:02:24;;;;;;;4.77;1.33;;;;;;;10.75;57.03;100939.78;4245164;28;20235;-69
2022/09/06 03:04:51;;;;;;;3.13;1.30;;;;;;;10.65;57.35;100933.53;4253419;28;20304;-69
2022/09/06 03:07:17;;;;;;;2.13;1.10;;;;;;;10.72;57.49;100937.34;4257031;28;21476;-68
2022/09/06 03:09:44;;;;;;;5.73;1.40;;;;;;;10.72;57.26;100929.38;4249835;28;20235;-69
2022/09/06 03:12:10;;;;;;;6.40;1.17;;;;;;;10.71;57.02;100927.69;4253850;28;21683;-68
2022/09/06 03:14:40;;;;;;;3.63;1.40;;;;;;;10.73;57.05;100926.59;4253242;28;20246;-69
2022/09/06 03:17:06;;;;;;;6.23;1.40;;;;;;;10.69;56.87;100927.00;4239416;28;22033;-69
2022/09/06 03:19:33;;;;;;;11.83;1.70;;;;;;;10.67;57.11;100926.28;4249283;28;20238;-69
2022/09/06 03:21:59;;;;;;;9.47;1.63;;;;;;;10.71;57.24;100936.53;4244779;28;23345;-70
2022/09/06 03:24:26;;;;;;;8.20;1.43;;;;;;;10.61;57.60;100934.81;4248763;28;20311;-69
2022/09/06 03:26:52;;;;;;;5.20;1.50;;;;;;;10.58;57.66;100933.22;4252142;28;20403;-70
2022/09/06 03:29:19;;;;;;;2.63;1.23;;;;;;;10.48;58.43;100925.19;4253110;28;20229;-68
2022/09/06 03:31:45;;;;;;;8.07;1.40;;;;;;;10.57;58.21;100931.56;4251696;28;20269;-69
2022/09/06 03:34:12;;;;;;;6.00;1.50;;;;;;;10.49;58.34;100929.56;4254046;28;20231;-69
2022/09/06 03:36:38;;;;;;;6.53;1.30;;;;;;;10.53;59.00;100928.31;4247167;28;20234;-69
2022/09/06 03:39:06;;;;;;;5.80;1.47;;;;;;;10.54;58.11;100937.16;4245969;28;21372;-68
2022/09/06 03:41:32;;;;;;;8.43;1.87;;;;;;;10.53;58.69;100930.97;4252777;28;20284;-69
2022/09/06 03:43:59;;;;;;;6.03;1.37;;;;;;;10.61;58.31;100935.66;4238723;28;20875;-69
2022/09/06 03:46:29;;;;;;;2.70;1.30;;;;;;;10.61;58.13;100930.31;4250248;28;20238;-69
2022/09/06 03:48:57;;;;;;;4.73;1.27;;;;;;;10.56;58.53;100933.38;4255407;28;20315;-69
2022/09/06 03:51:23;;;;;;;2.40;1.30;;;;;;;10.55;58.20;100928.19;4206900;28;20357;-69
2022/09/06 03:53:50;;;;;;;2.80;1.30;;;;;;;10.55;58.18;100921.03;4231079;28;20238;-68
2022/09/06 03:56:17;;;;;;;3.17;1.30;;;;;;;10.59;58.15;100923.44;4258138;28;21855;-68
2022/09/06 03:58:43;;;;;;;4.30;1.30;;;;;;;10.74;58.01;100935.41;4246916;28;20254;-70
2022/09/06 04:01:11;;;;;;;6.67;1.60;;;;;;;10.66;58.35;100927.25;4248043;28;23110;-70
2022/09/06 04:03:38;;;;;;;5.17;1.73;;;;;;;10.69;58.05;100925.16;4256022;28;25162;-69
2022/09/06 04:06:05;;;;;;;5.63;1.33;;;;;;;10.66;58.59;100916.63;4248837;28;21600;-69
2022/09/06 04:08:33;;;;;;;3.23;1.10;;;;;;;10.60;58.26;100917.97;4242074;28;20227;-74
2022/09/06 04:10:59;;;;;;;6.77;1.67;;;;;;;10.67;58.08;100918.28;4229322;28;20284;-75
2022/09/06 04:13:28;;;;;;;3.43;1.40;;;;;;;10.74;57.50;100920.28;4242021;28;23814;-74
2022/09/06 04:15:54;;;;;;;4.57;1.30;;;;;;;10.85;57.35;100913.19;4252104;28;20301;-76
2022/09/06 04:18:21;;;;;;;5.40;1.77;;;;;;;10.81;57.23;100915.25;4251932;28;20249;-75
2022/09/06 04:20:50;;;;;;;7.67;1.63;;;;;;;10.76;57.01;100917.47;4253030;28;20233;-75
2022/09/06 04:23:17;;;;;;;3.10;1.50;;;;;;;10.80;57.43;100918.06;4244978;28;20238;-74
2022/09/06 04:25:46;;;;;;;4.70;1.70;;;;;;;10.78;57.07;100916.38;4255368;28;20906;-74
2022/09/06 04:28:12;;;;;;;7.60;1.70;;;;;;;10.90;56.68;100914.44;4252659;28;20245;-72
2022/09/06 04:30:39;;;;;;;6.40;1.80;;;;;;;10.97;56.93;100926.25;4251029;28;22200;-75
2022/09/06 04:33:06;;;;;;;5.50;1.50;;;;;;;10.99;56.29;100924.28;4256131;28;20229;-75
2022/09/06 04:35:33;;;;;;;9.20;1.60;;;;;;;11.05;56.11;100927.38;4261504;28;20867;-74
2022/09/06 04:38:00;;;;;;;5.23;1.50;;;;;;;11.14;55.12;100931.91;4255892;28;21647;-71
2022/09/06 04:40:27;;;;;;;4.93;1.40;;;;;;;11.14;55.28;100931.91;4246936;28;20239;-72
2022/09/06 04:42:54;;;;;;;5.37;1.53;;;;;;;11.24;55.13;100938.09;4261499;28;20230;-70
2022/09/06 04:45:20;;;;;;;6.50;1.40;;;;;;;11.39;54.59;100934.06;4259779;28;21505;-74
2022/09/06 04:47:49;;;;;;;2.90;1.40;;;;;;;11.24;53.56;100930.13;4246356;28;20358;-74
2022/09/06 04:50:16;;;;;;;5.87;1.63;;;;;;;11.21;54.16;100925.03;4265389;28;21244;-75
2022/09/06 04:52:42;;;;;;;4.63;1.40;;;;;;;11.31;54.08;100933.06;4257447;28;20226;-75
2022/09/06 04:55:09;;;;;;;8.13;1.60;;;;;;;11.34;54.73;100933.63;4275921;28;20265;-76
2022/09/06 04:57:36;;;;;;;2.97;1.37;;;;;;;11.34;54.42;100922.97;4239990;28;20230;-78
2022/09/06 05:00:09;;;;;;;7.47;2.33;;;;;;;11.40;54.24;100926.91;4255849;28;21094;-74
2022/09/06 05:02:36;;;;;;;7.90;1.70;;;;;;;11.38;54.33;100921.72;4250861;28;20586;-73
2022/09/06 05:05:03;;;;;;;6.73;1.63;;;;;;;11.45;54.71;100927.34;4244591;28;21136;-74
2022/09/06 05:07:30;;;;;;;2.67;1.20;;;;;;;11.41;53.94;100931.25;4243575;28;20242;-73
2022/09/06 05:09:57;;;;;;;5.67;1.20;;;;;;;11.43;53.87;100931.13;4252419;28;20401;-75
2022/09/06 05:12:23;;;;;;;6.00;1.67;;;;;;;11.49;54.25;100926.06;4214796;28;20284;-72
2022/09/06 05:14:50;;;;;;;6.80;1.87;;;;;;;11.55;53.92;100919.34;4241845;28;20231;-71
2022/09/06 05:17:17;;;;;;;5.73;1.40;;;;;;;11.62;53.33;100926.66;4248969;28;20330;-70
2022/09/06 05:19:43;;;;;;;9.73;1.43;;;;;;;11.64;52.67;100926.50;4240998;28;22957;-72
2022/09/06 05:22:11;;;;;;;9.17;1.60;;;;;;;11.73;51.95;100928.34;4239166;28;20235;-76
2022/09/06 05:24:37;;;;;;;7.37;1.40;;;;;;;11.83;52.33;100929.16;4245543;28;20565;-77
2022/09/06 05:27:06;;;;;;;7.70;1.57;;;;;;;11.88;52.08;100927.94;4245944;28;20238;-72
2022/09/06 05:29:32;;;;;;;4.73;1.60;;;;;;;11.96;51.46;100931.59;4248415;28;20269;-71
2022/09/06 05:31:59;;;;;;;3.63;1.20;;;;;;;12.02;52.08;100927.50;4280688;28;20288;-72
2022/09/06 05:34:26;;;;;;;3.30;1.50;;;;;;;12.07;51.28;100924.41;4255464;28;20551;-75
2022/09/06 05:36:52;;;;;;;5.50;1.60;;;;;;;12.04;51.04;100926.38;4239979;28;20449;-74
2022/09/06 05:39:20;;;;;;;2.43;1.10;;;;;;;12.12;51.32;100923.00;4261410;28;20235;-72
2022/09/06 05:41:47;;;;;;;5.20;1.50;;;;;;;12.18;50.77;100926.94;4304187;28;20605;-74
2022/09/06 05:44:14;;;;;;;5.20;1.50;;;;;;;12.22;49.81;100922.97;4272189;28;20312;-71
2022/09/06 05:46:45;;;;;;;8.30;1.53;;;;;;;12.38;50.42;100927.72;4287883;28;20229;-72
2022/09/06 05:49:12;;;;;;;8.77;1.30;;;;;;;12.44;49.99;100935.16;4275770;28;20241;-72
2022/09/06 05:51:39;;;;;;;5.77;1.50;;;;;;;12.50;50.01;100937.22;4258301;28;20234;-71
2022/09/06 05:54:06;;;;;;;7.43;1.40;;;;;;;12.57;49.63;100933.00;4271096;28;20323;-72
2022/09/06 05:56:33;;;;;;;3.23;1.20;;;;;;;12.65;48.61;100935.78;4270847;28;21084;-63
2022/09/06 05:59:00;;;;;;;8.40;2.10;;;;;;;12.73;48.94;100927.03;4243132;28;20527;-74
2022/09/06 06:01:28;;;;;;;7.60;1.60;;;;;;;12.83;47.54;100935.00;4259315;28;20585;-74
2022/09/06 06:03:57;;;;;;;8.10;1.27;;;;;;;12.84;47.81;100934.03;4268612;28;20230;-72
2022/09/06 06:06:25;;;;;;;9.43;2.00;;;;;;;12.91;48.51;100929.78;4260675;28;23702;-70
2022/09/06 06:08:53;;;;;;;6.07;1.60;;;;;;;13.08;47.79;100931.63;4254269;28;20231;-71
2022/09/06 06:11:19;;;;;;;9.10;1.57;;;;;;;13.19;47.50;100927.09;4240900;28;21714;-69
2022/09/06 06:13:46;;;;;;;4.67;1.43;;;;;;;13.22;46.72;100927.63;4236148;28;23645;-72
2022/09/06 06:16:15;;;;;;;4.93;1.33;;;;;;;13.28;46.02;100928.91;4246280;28;23539;-70
2022/09/06 06:18:43;;;;;;;5.87;1.17;;;;;;;13.26;45.19;100934.34;4248474;28;20237;-70
2022/09/06 06:21:18;;;;;;;7.87;1.50;;;;;;;13.29;46.19;100933.25;4257340;28;20320;-71
2022/09/06 06:23:48;;;;;;;5.70;1.40;;;;;;;13.46;45.29;100940.47;4247050;28;20354;-72
2022/09/06 06:26:14;;;;;;;8.60;1.30;;;;;;;13.63;44.24;100945.97;4251167;28;20277;-69
2022/09/06 06:28:41;;;;;;;6.17;1.00;;;;;;;13.59;43.09;100941.91;4261524;28;20226;-68
2022/09/06 06:31:09;;;;;;;8.00;1.40;;;;;;;13.62;44.28;100944.28;4251943;28;21432;-70
2022/09/06 06:33:36;;;;;;;4.13;1.20;;;;;;;13.80;42.82;100945.13;4247506;28;20443;-71
2022/09/06 06:36:15;;;;;;;12.57;1.20;;;;;;;13.88;42.69;100941.66;4260449;28;21631;-69
2022/09/06 06:38:43;;;;;;;3.63;1.23;;;;;;;13.84;42.80;100941.16;4246796;28;20230;-70
2022/09/06 06:41:15;;;;;;;9.43;1.20;;;;;;;13.99;42.30;100943.28;4262622;28;21256;-73
2022/09/06 06:43:41;;;;;;;6.80;1.33;;;;;;;14.04;41.97;100949.00;4264005;28;20287;-75
2022/09/06 06:46:09;;;;;;;10.17;1.50;;;;;;;14.09;41.86;100952.03;4262787;28;20267;-74
2022/09/06 06:48:39;;;;;;;8.40;1.60;;;;;;;14.21;41.68;100953.50;4264028;28;22903;-75
2022/09/06 06:51:07;;;;;;;11.87;1.23;;;;;;;14.39;41.97;100952.59;4269649;28;22498;-72
2022/09/06 06:53:34;;;;;;;9.17;1.53;;;;;;;14.57;41.22;100961.47;4283836;28;21687;-75
2022/09/06 06:56:11;;;;;;;7.83;1.20;;;;;;;14.86;40.98;100966.47;4267044;28;21078;-78
2022/09/06 06:58:38;;;;;;;7.33;1.50;;;;;;;16.07;37.70;100971.50;4258812;28;20373;-68
2022/09/06 07:01:05;;;;;;;7.10;1.33;;;;;;;19.31;32.07;100989.69;4256365;28;21090;-67
2022/09/06 07:03:32;;;;;;;4.17;1.10;;;;;;;21.69;27.82;100999.88;4262729;28;20337;-68
2022/09/06 07:05:58;;;;;;;6.73;1.30;;;;;;;23.69;24.13;101021.38;4260170;28;20290;-74
2022/09/06 07:08:41;;;;;;;6.57;1.00;;;;;;;25.04;21.46;101019.06;4270909;28;22035;-72
2022/09/06 07:11:10;;;;;;;6.07;1.20;;;;;;;25.76;20.74;101026.59;4257419;28;20302;-69
2022/09/06 07:13:37;;;;;;;6.53;1.50;;;;;;;26.04;20.80;101031.44;4258320;28;21836;-66
2022/09/06 07:16:22;;;;;;;5.73;1.10;;;;;;;27.63;18.55;101036.97;4233199;28;23759;-65
2022/09/06 07:18:52;;;;;;;5.00;1.10;;;;;;;28.29;17.54;101042.88;4242798;28;22489;-67
2022/09/06 07:21:25;;;;;;;7.03;1.80;;;;;;;28.40;17.23;101045.53;4243246;28;20226;-66
2022/09/06 07:24:07;;;;;;;5.32;1.33;;;;;;;28.03;17.54;101044.34;4249778;28;21010;-66
2022/09/06 07:26:35;;;;;;;5.15;1.00;;;;;;;28.99;16.40;101050.56;4251723;28;20227;-65
2022/09/06 07:29:04;;;;;;;2.50;1.00;;;;;;;29.34;16.09;101043.91;4222450;28;20227;-64
2022/09/06 07:31:31;;;;;;;9.00;0.95;;;;;;;30.18;15.28;101050.88;4253813;28;20231;-63
2022/09/06 07:34:19;;;;;;;5.00;1.20;;;;;;;31.43;14.36;101049.53;4258750;28;20443;-67
2022/09/06 07:36:47;;;;;;;5.25;1.30;;;;;;;31.79;13.77;101046.88;4237721;28;20284;-65
2022/09/06 07:39:13;;;;;;;4.30;1.27;;;;;;;30.85;14.56;101037.69;4263081;28;20234;-65
2022/09/06 07:41:41;;;;;;;5.40;1.00;;;;;;;32.00;13.25;101044.19;4255682;28;20233;-65
2022/09/06 07:44:08;;;;;;;4.63;1.00;;;;;;;32.89;12.61;101051.03;4242229;28;20512;-65
2022/09/06 07:46:35;;;;;;;4.20;0.88;;;;;;;31.53;13.00;101035.81;4251553;28;22886;-67
2022/09/06 07:49:03;;;;;;;7.88;1.05;;;;;;;30.49;14.09;101026.44;4246019;28;20238;-64
2022/09/06 07:51:30;;;;;;;4.63;1.00;;;;;;;29.61;14.81;101019.25;4271055;28;21132;-66
2022/09/06 07:53:57;;;;;;;5.38;1.17;;;;;;;29.01;15.82;101029.22;4241690;28;21293;-67
2022/09/06 07:56:44;;;;;;;8.23;1.20;;;;;;;30.48;14.14;101035.75;4282431;28;20238;-64
2022/09/06 07:59:10;;;;;;;5.85;0.90;;;;;;;31.80;12.99;101044.97;4272719;28;23393;-65
2022/09/06 08:01:38;;;;;;;6.30;1.00;;;;;;;32.23;12.85;101049.16;4256241;28;20280;-67
2022/09/06 08:04:09;;;;;;;6.75;1.05;;;;;;;31.31;13.36;101049.75;4249343;28;20310;-65
2022/09/06 08:06:37;;;;;;;4.32;0.77;;;;;;;31.40;13.11;101043.69;4246117;28;23454;-64
2022/09/06 08:09:23;;;;;;;10.15;1.10;;;;;;;30.94;13.60;101044.34;4251694;28;21100;-67
2022/09/06 08:11:51;;;;;;;4.47;0.80;;;;;;;30.20;15.01;101037.69;4253599;28;20230;-53
2022/09/06 08:14:18;;;;;;;4.47;0.85;;;;;;;28.69;15.63;101026.28;4267558;28;20256;-64
2022/09/06 08:16:45;;;;;;;3.97;0.68;;;;;;;25.45;17.97;101014.84;4246554;28;20234;-68
2022/09/06 08:19:12;;;;;;;5.57;0.93;;;;;;;23.09;21.29;100995.31;4244676;28;20685;-54
2022/09/06 08:21:39;;;;;;;3.73;0.80;;;;;;;22.35;22.86;100991.03;4269348;28;20245;-68
2022/09/06 08:24:08;;;;;;;1.67;0.80;;;;;;;22.39;23.41;100986.03;4293834;28;20254;-69
2022/09/06 08:26:38;;;;;;;4.63;0.90;;;;;;;22.41;23.27;100992.09;4265995;28;20315;-69
2022/09/06 08:29:06;;;;;;;3.43;0.90;;;;;;;21.81;23.99;100979.28;4248198;28;20657;-54
2022/09/06 08:31:34;;;;;;;4.47;0.90;;;;;;;21.96;25.30;100978.25;4271250;28;20377;-75
2022/09/06 08:34:02;;;;;;;3.93;0.60;;;;;;;22.38;23.59;100976.22;4267017;28;21739;-68
2022/09/06 08:36:29;;;;;;;5.60;0.87;;;;;;;22.28;23.66;100977.47;4287987;28;20441;-68
2022/09/06 08:39:01;;;;;;;7.67;1.17;;;;;;;22.12;23.49;100969.72;4322762;28;21434;-67
2022/09/06 08:41:50;;;;;;;4.07;0.73;;;;;;;22.21;24.17;100976.63;4260776;28;20428;-67
2022/09/06 08:44:46;;;;;;;3.67;0.80;;;;;;;22.29;23.82;100970.19;4354466;28;20249;-64
2022/09/06 08:47:25;;;;;;;6.23;0.80;;;;;;;22.34;23.95;100963.09;4300120;28;20231;-68
2022/09/06 08:50:00;;;;;;;2.00;1.00;;;;;;;22.36;23.79;100967.44;4267555;28;20234;-68
2022/09/06 08:52:42;;;;;;;8.87;0.87;;;;;;;21.99;24.24;100961.59;4282957;28;20250;-67
2022/09/06 08:55:37;;;;;;;7.17;0.90;;;;;;;22.20;24.33;100957.84;4267517;28;20720;-66
2022/09/06 08:58:19;;;;;;;5.17;0.97;;;;;;;22.31;24.21;100955.38;4256350;28;20458;-70
2022/09/06 09:00:50;;;;;;;2.60;0.60;;;;;;;21.29;25.52;100953.69;4254615;28;21272;-66
2022/09/06 09:03:20;;;;;;;8.40;0.90;;;;;;;20.69;25.52;100947.16;4248664;28;20380;-67
2022/09/06 09:05:51;;;;;;;3.93;0.90;;;;;;;20.96;26.12;100940.03;4257421;28;21981;-76
2022/09/06 09:08:20;;;;;;;1.40;0.70;;;;;;;20.23;26.37;100935.81;4266218;28;20385;-69
2022/09/06 09:10:50;;;;;;;1.73;0.80;;;;;;;20.81;25.89;100940.16;4258969;28;22782;-72
2022/09/06 09:13:31;;;;;;;3.03;0.70;;;;;;;20.54;25.96;100937.28;4260364;28;20296;-69
2022/09/06 09:15:58;;;;;;;1.97;0.80;;;;;;;20.48;25.79;100923.72;4254859;28;20270;-70
2022/09/06 09:18:30;;;;;;;5.53;0.90;;;;;;;20.81;25.98;100930.19;4252884;28;21657;-76
2022/09/06 09:20:57;;;;;;;5.23;0.70;;;;;;;20.77;26.48;100928.09;4261068;28;21221;-75
2022/09/06 09:23:25;;;;;;;1.13;0.57;;;;;;;20.94;26.98;100926.69;4252856;28;20233;-77
2022/09/06 09:25:52;;;;;;;5.80;0.70;;;;;;;21.16;26.22;100929.28;4242388;28;20242;-69
2022/09/06 09:28:22;;;;;;;3.37;0.87;;;;;;;21.11;25.43;100923.66;4231368;28;20406;-66
2022/09/06 09:30:51;;;;;;;3.77;0.97;;;;;;;21.19;25.51;100928.88;4264189;28;20235;-70
2022/09/06 09:33:34;;;;;;;1.53;0.70;;;;;;;21.28;25.44;100930.34;4259304;28;21371;-70
2022/09/06 09:36:06;;;;;;;2.13;0.60;;;;;;;20.95;25.20;100914.81;4263478;28;20291;-69
2022/09/06 09:38:39;;;;;;;3.43;0.60;;;;;;;20.52;26.17;100909.59;4245583;28;20233;-68
2022/09/06 09:41:07;;;;;;;1.33;0.70;;;;;;;20.35;26.50;100908.25;4245608;28;21136;-67
2022/09/06 09:43:41;;;;;;;1.70;0.73;;;;;;;20.07;26.34;100902.84;4260368;28;20230;-69
2022/09/06 09:46:13;;;;;;;3.63;0.80;;;;;;;20.29;26.54;100901.75;4257105;28;23438;-71
2022/09/06 09:49:00;;;;;;;2.60;0.70;;;;;;;20.30;26.76;100892.63;4254164;28;21237;-70
2022/09/06 09:51:28;;;;;;;4.47;0.80;;;;;;;20.48;26.80;100900.19;4253675;28;20240;-71
2022/09/06 09:54:00;;;;;;;1.23;0.57;;;;;;;20.33;26.57;100894.09;4260127;28;20586;-70
2022/09/06 09:56:32;;;;;;;2.90;0.60;;;;;;;19.90;27.42;100892.31;4244254;28;20242;-68
2022/09/06 09:58:59;;;;;;;1.40;0.60;;;;;;;19.46;27.57;100881.72;4223492;28;21123;-69
2022/09/06 10:01:29;;;;;;;2.93;0.60;;;;;;;19.37;28.79;100884.53;4262208;28;20899;-71
2022/09/06 10:04:05;;;;;;;4.20;0.73;;;;;;;19.54;28.94;100881.56;4251036;28;20603;-70
2022/09/06 10:06:51;;;;;;;1.50;0.60;;;;;;;19.69;28.30;100873.41;4260317;28;21203;-73
2022/09/06 10:09:37;;;;;;;1.57;0.77;;;;;;;19.63;27.90;100880.41;4259040;28;21273;-68
2022/09/06 10:12:05;;;;;;;0.90;0.60;;;;;;;19.18;28.28;100867.09;4250635;28;20245;-69
2022/09/06 10:14:42;;;;;;;5.90;1.00;;;;;;;19.12;28.79;100869.72;4252332;28;20254;-71
2022/09/06 10:17:43;;;;;;;3.90;0.70;;;;;;;18.81;28.64;100870.81;4236171;28;20229;-68
2022/09/06 10:20:11;;;;;;;1.63;0.63;;;;;;;18.50;29.36;100863.75;4255229;28;21275;-71
2022/09/06 10:22:47;;;;;;;2.97;0.87;;;;;;;18.69;29.10;100854.25;4250884;28;20362;-69
2022/09/06 10:25:45;;;;;;;2.93;1.00;;;;;;;18.62;29.31;100849.81;4250557;28;20283;-68
2022/09/06 10:28:30;;;;;;;10.50;2.87;;;;;;;18.53;30.27;100851.75;4269450;28;20668;-70
2022/09/06 10:31:21;;;;;;;1.50;1.00;;;;;;;18.48;29.13;100844.22;4271044;28;21159;-70
2022/09/06 10:33:56;;;;;;;1.43;0.70;;;;;;;18.49;29.27;100848.56;4269703;28;20295;-70
2022/09/06 10:36:33;;;;;;;7.33;0.90;;;;;;;18.52;29.97;100847.41;4262619;28;21159;-70
2022/09/06 10:39:04;;;;;;;3.83;0.63;;;;;;;18.82;30.06;100855.47;4254433;28;22605;-70
2022/09/06 10:41:37;;;;;;;3.63;0.60;;;;;;;18.87;28.62;100853.03;4239065;28;20592;-69
2022/09/06 10:44:13;;;;;;;3.70;0.70;;;;;;;18.72;28.78;100850.34;4268132;28;20824;-71
2022/09/06 10:46:43;;;;;;;6.30;1.07;;;;;;;18.74;29.38;100850.97;4221079;28;20236;-71
2022/09/06 10:49:14;;;;;;;2.30;0.50;;;;;;;18.87;29.49;100845.78;4250202;28;20238;-71
2022/09/06 10:51:48;;;;;;;5.80;0.87;;;;;;;18.92;29.00;100843.34;4317923;28;21083;-70
2022/09/06 10:54:23;;;;;;;4.13;0.90;;;;;;;18.98;29.62;100839.88;4494166;28;20256;-70
2022/09/06 10:57:09;;;;;;;3.33;0.70;;;;;;;19.06;28.73;100830.84;4534381;28;20224;-72
2022/09/06 11:00:13;;;;;;;1.47;0.80;;;;;;;18.89;29.01;100832.94;4570643;28;20238;-68
2022/09/06 11:03:02;;;;;;;4.83;1.07;;;;;;;18.91;30.02;100833.56;4601384;28;20293;-71
2022/09/06 11:08:53;;;;;;;2.37;0.47;;;;;;;18.98;29.00;100828.25;4958311;23;20656;-67
2022/09/06 11:11:46;;;;;;;0.90;0.60;;;;;;;18.89;28.56;100822.13;4947792;28;20242;-68
2022/09/06 11:14:14;;;;;;;2.70;0.60;;;;;;;18.98;28.08;100822.88;4944295;28;20321;-67
2022/09/06 11:16:52;;;;;;;0.90;0.60;;;;;;;19.13;28.93;100820.97;4960180;28;20982;-68
2022/09/06 11:19:22;;;;;;;5.20;0.93;;;;;;;19.40;28.34;100805.84;4949459;28;21072;-67
2022/09/06 11:22:06;;;;;;;5.67;1.40;;;;;;;19.39;28.06;100812.28;4973582;28;20380;-68
2022/09/06 11:24:56;;;;;;;3.17;0.90;;;;;;;19.41;27.65;100814.81;4970851;28;20227;-68
2022/09/06 11:27:29;;;;;;;2.03;1.27;;;;;;;19.65;28.12;100810.84;5001680;28;20230;-67
2022/09/06 11:30:02;;;;;;;1.60;0.70;;;;;;;19.50;26.83;100816.34;4970410;28;20344;-67
2022/09/06 11:32:42;;;;;;;3.30;0.80;;;;;;;19.23;27.69;100811.72;4971491;28;20231;-65
2022/09/06 11:35:20;;;;;;;2.63;0.80;;;;;;;19.36;27.42;100804.59;4972399;28;20321;-66
2022/09/06 11:37:48;;;;;;;1.03;0.60;;;;;;;19.59;27.61;100798.94;4963879;28;20238;-68
2022/09/06 11:40:24;;;;;;;2.63;0.70;;;;;;;19.89;26.43;100798.81;4991412;28;20318;-68
2022/09/06 11:42:53;;;;;;;6.50;0.87;;;;;;;19.96;27.35;100794.28;4978241;28;20253;-70
2022/09/06 11:45:44;;;;;;;5.17;0.60;;;;;;;19.82;26.62;100793.34;4976701;28;20236;-66
2022/09/06 11:48:23;;;;;;;4.10;0.70;;;;;;;19.60;26.18;100797.94;4980063;28;20342;-67